createdAt,value
2022-11-16T00:00:02.772Z,0.00
2022-11-16T00:00:58.282Z,0.00
2022-11-16T00:01:58.290Z,0.00
2022-11-16T00:02:58.307Z,0.00
2022-11-16T00:03:58.264Z,0.00
2022-11-16T00:04:58.248Z,0.00
2022-11-16T00:05:58.219Z,0.00
2022-11-16T00:06:58.308Z,0.00
2022-11-16T00:07:58.223Z,0.00
2022-11-16T00:08:58.256Z,0.00
2022-11-16T00:09:58.178Z,0.00
2022-11-16T00:10:58.177Z,0.00
2022-11-16T00:11:58.162Z,0.00
2022-11-16T00:12:58.157Z,0.00
2022-11-16T00:13:58.140Z,0.00
2022-11-16T00:14:58.148Z,0.00
2022-11-16T00:15:58.153Z,0.00
2022-11-16T00:16:58.109Z,0.00
2022-11-16T00:17:58.086Z,0.00
2022-11-16T00:18:58.092Z,0.00
2022-11-16T00:19:58.068Z,0.00
2022-11-16T00:20:58.087Z,0.00
2022-11-16T00:21:58.056Z,0.00
2022-11-16T00:22:58.039Z,0.00
2022-11-16T00:23:58.042Z,0.00
2022-11-16T00:24:58.023Z,0.00
2022-11-16T00:25:58.007Z,0.00
2022-11-16T00:26:58.021Z,0.00
2022-11-16T00:27:57.990Z,0.00
2022-11-16T00:28:58.004Z,0.00
2022-11-16T00:29:57.981Z,0.00
2022-11-16T00:30:57.973Z,0.00
2022-11-16T00:31:57.953Z,0.00
2022-11-16T00:32:57.945Z,0.00
2022-11-16T00:33:57.926Z,0.00
2022-11-16T00:34:57.937Z,0.00
2022-11-16T00:35:57.911Z,0.00
2022-11-16T00:36:57.901Z,0.00
2022-11-16T00:37:57.867Z,0.00
2022-11-16T00:38:57.878Z,0.00
2022-11-16T00:39:57.869Z,0.00
2022-11-16T00:40:57.876Z,0.00
2022-11-16T00:41:57.832Z,0.00
2022-11-16T00:42:57.833Z,0.00
2022-11-16T00:43:57.837Z,0.00
2022-11-16T00:44:57.812Z,0.00
2022-11-16T00:45:57.792Z,0.00
2022-11-16T00:46:57.797Z,0.00
2022-11-16T00:48:00.676Z,0.00
2022-11-16T00:48:57.772Z,0.00
2022-11-16T00:49:57.757Z,0.00
2022-11-16T00:50:57.753Z,0.00
2022-11-16T00:51:57.775Z,0.00
2022-11-16T00:52:57.734Z,0.00
2022-11-16T00:53:57.703Z,0.00
2022-11-16T00:54:57.704Z,0.00
2022-11-16T00:55:57.716Z,0.00
2022-11-16T00:56:57.683Z,0.00
2022-11-16T00:57:57.777Z,0.00
2022-11-16T00:58:57.665Z,0.00
2022-11-16T00:59:57.645Z,0.00
2022-11-16T01:00:57.675Z,0.00
2022-11-16T01:01:57.649Z,0.00
2022-11-16T01:02:57.637Z,0.00
2022-11-16T01:03:57.621Z,0.00
2022-11-16T01:04:57.602Z,0.00
2022-11-16T01:05:57.581Z,0.00
2022-11-16T01:06:57.612Z,0.00
2022-11-16T01:07:57.563Z,0.00
2022-11-16T01:08:57.576Z,0.00
2022-11-16T01:09:57.537Z,0.00
2022-11-16T01:10:57.535Z,0.00
2022-11-16T01:11:57.508Z,0.00
2022-11-16T01:12:57.521Z,0.00
2022-11-16T01:13:57.510Z,0.00
2022-11-16T01:14:57.493Z,0.00
2022-11-16T01:15:57.479Z,0.00
2022-11-16T01:16:57.493Z,0.00
2022-11-16T01:17:57.457Z,0.00
2022-11-16T01:18:57.462Z,0.00
2022-11-16T01:19:57.423Z,0.00
2022-11-16T01:20:57.445Z,0.00
2022-11-16T01:21:57.400Z,0.00
2022-11-16T01:22:57.395Z,0.00
2022-11-16T01:23:57.492Z,0.00
2022-11-16T01:24:57.377Z,0.00
2022-11-16T01:25:57.369Z,0.00
2022-11-16T01:26:57.380Z,0.00
2022-11-16T01:27:57.362Z,0.00
2022-11-16T01:28:57.352Z,0.00
2022-11-16T01:29:57.334Z,0.00
2022-11-16T01:30:57.337Z,0.00
2022-11-16T01:31:57.303Z,0.00
2022-11-16T01:32:57.291Z,0.00
2022-11-16T01:33:57.308Z,0.00
2022-11-16T01:34:57.273Z,0.00
2022-11-16T01:35:57.256Z,0.00
2022-11-16T01:36:57.296Z,0.00
2022-11-16T01:37:57.237Z,0.00
2022-11-16T01:38:57.231Z,0.00
2022-11-16T01:39:57.214Z,0.00
2022-11-16T01:40:57.251Z,0.00
2022-11-16T01:41:57.216Z,0.00
2022-11-16T01:42:57.217Z,0.00
2022-11-16T01:43:57.172Z,0.00
2022-11-16T01:44:57.196Z,0.00
2022-11-16T01:45:57.253Z,0.00
2022-11-16T01:46:57.155Z,0.00
2022-11-16T01:47:57.212Z,0.00
2022-11-16T01:48:57.146Z,0.00
2022-11-16T01:49:57.121Z,0.00
2022-11-16T01:50:57.113Z,0.00
2022-11-16T01:51:57.087Z,0.00
2022-11-16T01:52:57.808Z,0.00
2022-11-16T01:53:57.076Z,0.00
2022-11-16T01:54:57.072Z,0.00
2022-11-16T01:55:57.047Z,0.00
2022-11-16T01:56:57.087Z,0.00
2022-11-16T01:57:57.034Z,0.00
2022-11-16T01:58:57.027Z,0.00
2022-11-16T01:59:56.996Z,0.00
2022-11-16T02:00:57.225Z,0.00
2022-11-16T02:01:56.968Z,0.00
2022-11-16T02:02:56.968Z,0.00
2022-11-16T02:03:56.976Z,0.00
2022-11-16T02:04:56.951Z,0.00
2022-11-16T02:05:56.955Z,0.00
2022-11-16T02:06:56.976Z,0.00
2022-11-16T02:07:56.915Z,0.00
2022-11-16T02:08:56.918Z,0.00
2022-11-16T02:09:56.901Z,0.00
2022-11-16T02:10:56.882Z,0.00
2022-11-16T02:11:56.877Z,0.00
2022-11-16T02:12:56.866Z,0.00
2022-11-16T02:13:56.843Z,0.00
2022-11-16T02:14:56.858Z,0.00
2022-11-16T02:15:56.843Z,0.00
2022-11-16T02:16:56.826Z,0.00
2022-11-16T02:17:56.830Z,0.00
2022-11-16T02:18:56.802Z,0.00
2022-11-16T02:19:56.785Z,0.00
2022-11-16T02:20:56.802Z,0.00
2022-11-16T02:21:56.754Z,0.00
2022-11-16T02:22:56.752Z,0.00
2022-11-16T02:23:56.747Z,0.00
2022-11-16T02:24:56.747Z,0.00
2022-11-16T02:25:56.753Z,0.00
2022-11-16T02:26:56.727Z,0.00
2022-11-16T02:27:56.694Z,0.00
2022-11-16T02:28:56.705Z,0.00
2022-11-16T02:29:56.670Z,0.00
2022-11-16T02:30:56.703Z,0.00
2022-11-16T02:31:56.712Z,0.00
2022-11-16T02:32:56.653Z,0.00
2022-11-16T02:33:56.629Z,0.00
2022-11-16T02:34:56.630Z,0.00
2022-11-16T02:35:56.623Z,0.00
2022-11-16T02:36:56.624Z,0.00
2022-11-16T02:37:56.580Z,0.00
2022-11-16T02:38:56.586Z,0.00
2022-11-16T02:39:56.572Z,0.00
2022-11-16T02:40:56.675Z,0.00
2022-11-16T02:41:56.561Z,0.00
2022-11-16T02:42:56.537Z,0.00
2022-11-16T02:43:56.524Z,0.00
2022-11-16T02:44:56.540Z,0.00
2022-11-16T02:45:56.502Z,0.00
2022-11-16T02:46:56.521Z,0.00
2022-11-16T02:47:56.478Z,0.00
2022-11-16T02:48:56.479Z,0.00
2022-11-16T02:49:56.485Z,0.00
2022-11-16T02:50:56.461Z,0.00
2022-11-16T02:51:56.453Z,0.00
2022-11-16T02:52:56.458Z,0.00
2022-11-16T02:53:56.410Z,0.00
2022-11-16T02:54:56.407Z,0.00
2022-11-16T02:55:56.412Z,0.00
2022-11-16T02:56:56.420Z,0.00
2022-11-16T02:57:56.370Z,0.00
2022-11-16T02:58:56.373Z,0.00
2022-11-16T02:59:56.347Z,0.00
2022-11-16T03:00:56.416Z,0.00
2022-11-16T03:01:56.336Z,0.00
2022-11-16T03:02:56.348Z,0.00
2022-11-16T03:03:56.325Z,0.00
2022-11-16T03:04:56.320Z,0.00
2022-11-16T03:05:56.291Z,0.00
2022-11-16T03:06:56.341Z,0.00
2022-11-16T03:07:56.282Z,0.00
2022-11-16T03:08:56.292Z,0.00
2022-11-16T03:09:56.238Z,0.00
2022-11-16T03:10:56.301Z,0.00
2022-11-16T03:11:56.240Z,0.00
2022-11-16T03:12:56.242Z,0.00
2022-11-16T03:13:56.201Z,0.00
2022-11-16T03:14:56.310Z,0.00
2022-11-16T03:15:56.189Z,0.00
2022-11-16T03:16:56.208Z,0.00
2022-11-16T03:17:56.163Z,0.00
2022-11-16T03:18:56.165Z,0.00
2022-11-16T03:19:56.158Z,0.00
2022-11-16T03:20:56.128Z,0.00
2022-11-16T03:21:56.153Z,0.00
2022-11-16T03:22:56.104Z,0.00
2022-11-16T03:23:56.106Z,0.00
2022-11-16T03:24:56.086Z,0.00
2022-11-16T03:25:56.083Z,0.00
2022-11-16T03:26:56.091Z,0.00
2022-11-16T03:27:56.049Z,0.00
2022-11-16T03:28:56.040Z,0.00
2022-11-16T03:29:56.039Z,0.00
2022-11-16T03:30:56.045Z,0.00
2022-11-16T03:31:56.056Z,0.00
2022-11-16T03:32:55.989Z,0.00
2022-11-16T03:33:56.000Z,0.00
2022-11-16T03:34:55.976Z,0.00
2022-11-16T03:35:55.987Z,0.00
2022-11-16T03:36:55.967Z,0.00
2022-11-16T03:37:55.951Z,0.00
2022-11-16T03:38:55.932Z,0.00
2022-11-16T03:39:55.939Z,0.00
2022-11-16T03:40:55.905Z,0.00
2022-11-16T03:41:55.951Z,0.00
2022-11-16T03:42:55.893Z,0.00
2022-11-16T03:43:55.889Z,0.00
2022-11-16T03:44:55.870Z,0.00
2022-11-16T03:45:55.867Z,0.00
2022-11-16T03:46:55.870Z,0.00
2022-11-16T03:47:55.840Z,0.00
2022-11-16T03:48:55.820Z,0.00
2022-11-16T03:49:55.834Z,0.00
2022-11-16T03:50:55.804Z,0.00
2022-11-16T03:51:55.846Z,0.00
2022-11-16T03:52:55.815Z,0.00
2022-11-16T03:53:55.812Z,0.00
2022-11-16T03:54:55.758Z,0.00
2022-11-16T03:55:55.762Z,0.00
2022-11-16T03:56:55.734Z,0.00
2022-11-16T03:57:55.763Z,0.00
2022-11-16T03:58:55.739Z,0.00
2022-11-16T03:59:55.726Z,0.00
2022-11-16T04:00:55.783Z,0.00
2022-11-16T04:01:55.693Z,0.00
2022-11-16T04:02:55.674Z,0.00
2022-11-16T04:03:55.712Z,0.00
2022-11-16T04:04:55.656Z,0.00
2022-11-16T04:05:55.656Z,0.00
2022-11-16T04:06:55.687Z,0.00
2022-11-16T04:07:55.635Z,0.00
2022-11-16T04:08:55.631Z,0.00
2022-11-16T04:09:55.632Z,0.00
2022-11-16T04:10:55.587Z,0.00
2022-11-16T04:11:55.583Z,0.00
2022-11-16T04:12:55.570Z,0.00
2022-11-16T04:13:55.573Z,0.00
2022-11-16T04:14:55.582Z,0.00
2022-11-16T04:15:55.536Z,0.00
2022-11-16T04:16:55.539Z,0.00
2022-11-16T04:17:55.512Z,0.00
2022-11-16T04:18:55.508Z,0.00
2022-11-16T04:19:58.301Z,0.00
2022-11-16T04:20:55.469Z,0.00
2022-11-16T04:21:55.502Z,0.00
2022-11-16T04:22:55.456Z,0.00
2022-11-16T04:23:55.475Z,0.00
2022-11-16T04:24:55.429Z,0.00
2022-11-16T04:25:55.432Z,0.00
2022-11-16T04:26:55.446Z,0.00
2022-11-16T04:27:55.420Z,0.00
2022-11-16T04:28:55.393Z,0.00
2022-11-16T04:29:55.393Z,0.00
2022-11-16T04:30:55.369Z,0.00
2022-11-16T04:31:55.380Z,0.00
2022-11-16T04:32:55.340Z,0.00
2022-11-16T04:33:55.402Z,0.00
2022-11-16T04:34:55.340Z,0.00
2022-11-16T04:35:55.353Z,0.00
2022-11-16T04:36:55.324Z,0.00
2022-11-16T04:37:55.463Z,0.00
2022-11-16T04:38:55.285Z,0.00
2022-11-16T04:39:55.282Z,0.00
2022-11-16T04:40:55.288Z,0.00
2022-11-16T04:41:55.281Z,0.00
2022-11-16T04:42:55.246Z,0.00
2022-11-16T04:43:55.228Z,0.00
2022-11-16T04:44:55.226Z,0.00
2022-11-16T04:45:55.213Z,0.00
2022-11-16T04:46:55.194Z,0.00
2022-11-16T04:47:55.197Z,0.00
2022-11-16T04:48:55.191Z,0.00
2022-11-16T04:49:55.178Z,0.00
2022-11-16T04:50:55.182Z,0.00
2022-11-16T04:51:55.140Z,0.00
2022-11-16T04:52:55.130Z,0.00
2022-11-16T04:53:55.125Z,0.00
2022-11-16T04:54:55.150Z,0.00
2022-11-16T04:56:00.519Z,0.00
2022-11-16T04:56:55.154Z,0.00
2022-11-16T04:57:55.123Z,0.00
2022-11-16T04:58:55.071Z,0.00
2022-11-16T04:59:55.080Z,0.00
2022-11-16T05:00:55.179Z,0.00
2022-11-16T05:01:55.044Z,0.00
2022-11-16T05:03:00.763Z,0.00
2022-11-16T05:03:55.036Z,0.00
2022-11-16T05:04:55.019Z,0.00
2022-11-16T05:05:55.622Z,0.00
2022-11-16T05:06:55.061Z,0.00
2022-11-16T05:07:55.041Z,0.00
2022-11-16T05:08:54.973Z,0.00
2022-11-16T05:09:54.967Z,0.00
2022-11-16T05:10:54.979Z,0.00
2022-11-16T05:11:54.939Z,0.00
2022-11-16T05:12:54.901Z,0.00
2022-11-16T05:13:54.927Z,0.00
2022-11-16T05:14:54.913Z,0.00
2022-11-16T05:15:54.952Z,0.00
2022-11-16T05:16:54.876Z,0.00
2022-11-16T05:17:54.894Z,0.00
2022-11-16T05:18:54.870Z,0.00
2022-11-16T05:19:54.863Z,0.00
2022-11-16T05:20:54.835Z,0.00
2022-11-16T05:21:54.836Z,0.00
2022-11-16T05:22:54.822Z,0.00
2022-11-16T05:23:54.800Z,0.00
2022-11-16T05:24:54.803Z,0.00
2022-11-16T05:25:54.799Z,0.00
2022-11-16T05:26:54.794Z,0.00
2022-11-16T05:27:54.760Z,0.00
2022-11-16T05:28:54.746Z,0.00
2022-11-16T05:29:54.782Z,0.00
2022-11-16T05:30:54.732Z,0.00
2022-11-16T05:31:54.722Z,0.00
2022-11-16T05:32:54.689Z,0.00
2022-11-16T05:33:54.704Z,0.00
2022-11-16T05:34:54.679Z,0.00
2022-11-16T05:35:54.702Z,0.00
2022-11-16T05:36:54.705Z,0.00
2022-11-16T05:37:54.691Z,0.00
2022-11-16T05:38:56.378Z,0.00
2022-11-16T05:39:54.645Z,0.00
2022-11-16T05:40:54.630Z,0.00
2022-11-16T05:41:54.619Z,0.00
2022-11-16T05:42:54.618Z,0.00
2022-11-16T05:43:54.596Z,0.00
2022-11-16T05:44:54.569Z,0.00
2022-11-16T05:45:54.563Z,0.00
2022-11-16T05:46:54.565Z,0.00
2022-11-16T05:47:54.543Z,0.00
2022-11-16T05:48:54.533Z,0.00
2022-11-16T05:49:54.526Z,0.00
2022-11-16T05:50:54.518Z,0.00
2022-11-16T05:51:54.503Z,0.00
2022-11-16T05:52:54.504Z,0.00
2022-11-16T05:53:54.487Z,0.00
2022-11-16T05:54:54.456Z,0.00
2022-11-16T05:55:54.497Z,0.00
2022-11-16T05:56:54.452Z,0.00
2022-11-16T05:57:54.466Z,0.00
2022-11-16T05:58:54.539Z,0.00
2022-11-16T05:59:54.437Z,0.00
2022-11-16T06:00:54.426Z,0.00
2022-11-16T06:01:54.394Z,0.00
2022-11-16T06:02:54.502Z,0.00
2022-11-16T06:03:54.374Z,0.00
2022-11-16T06:04:54.349Z,0.00
2022-11-16T06:05:54.379Z,0.00
2022-11-16T06:06:54.401Z,0.00
2022-11-16T06:07:54.379Z,0.00
2022-11-16T06:08:55.267Z,0.00
2022-11-16T06:09:54.308Z,0.00
2022-11-16T06:10:54.298Z,0.00
2022-11-16T06:11:54.293Z,0.00
2022-11-16T06:12:54.325Z,0.00
2022-11-16T06:13:54.328Z,0.00
2022-11-16T06:14:54.256Z,0.00
2022-11-16T06:15:54.426Z,0.00
2022-11-16T06:16:54.234Z,0.00
2022-11-16T06:17:54.243Z,0.00
2022-11-16T06:18:54.414Z,0.00
2022-11-16T06:19:54.210Z,0.00
2022-11-16T06:20:54.177Z,0.00
2022-11-16T06:21:54.215Z,0.00
2022-11-16T06:22:54.175Z,0.00
2022-11-16T06:23:54.160Z,0.00
2022-11-16T06:24:54.139Z,0.00
2022-11-16T06:25:54.139Z,0.00
2022-11-16T06:26:54.158Z,0.00
2022-11-16T06:27:54.125Z,0.00
2022-11-16T06:28:54.111Z,0.00
2022-11-16T06:29:54.119Z,0.00
2022-11-16T06:30:54.071Z,0.00
2022-11-16T06:31:54.081Z,0.00
2022-11-16T06:32:54.011Z,0.00
2022-11-16T06:33:54.055Z,0.00
2022-11-16T06:34:54.071Z,0.00
2022-11-16T06:35:54.053Z,0.00
2022-11-16T06:36:54.019Z,0.00
2022-11-16T06:37:54.009Z,0.00
2022-11-16T06:38:53.977Z,0.00
2022-11-16T06:39:54.307Z,0.00
2022-11-16T06:40:54.683Z,0.00
2022-11-16T06:41:53.946Z,0.00
2022-11-16T06:42:53.892Z,0.00
2022-11-16T06:43:53.882Z,0.00
2022-11-16T06:44:53.896Z,0.00
2022-11-16T06:45:53.862Z,0.00
2022-11-16T06:46:53.893Z,0.00
2022-11-16T06:47:53.845Z,0.00
2022-11-16T06:48:53.814Z,0.00
2022-11-16T06:49:53.825Z,0.00
2022-11-16T06:50:53.817Z,0.00
2022-11-16T06:51:53.824Z,0.00
2022-11-16T06:52:53.771Z,0.00
2022-11-16T06:53:53.956Z,0.00
2022-11-16T06:54:53.786Z,0.00
2022-11-16T06:55:53.862Z,0.00
2022-11-16T06:56:53.737Z,0.00
2022-11-16T06:57:53.735Z,0.00
2022-11-16T06:58:53.899Z,0.00
2022-11-16T06:59:53.722Z,0.00
2022-11-16T07:00:53.728Z,0.00
2022-11-16T07:01:53.841Z,0.00
2022-11-16T07:02:53.671Z,0.00
2022-11-16T07:03:53.676Z,0.00
2022-11-16T07:04:53.652Z,0.00
2022-11-16T07:05:53.652Z,0.00
2022-11-16T07:06:53.971Z,0.00
2022-11-16T07:07:53.630Z,0.00
2022-11-16T07:08:53.611Z,0.00
2022-11-16T07:09:53.611Z,0.00
2022-11-16T07:10:53.593Z,0.00
2022-11-16T07:11:53.618Z,0.00
2022-11-16T07:12:53.589Z,0.00
2022-11-16T07:13:53.569Z,0.00
2022-11-16T07:14:53.549Z,0.00
2022-11-16T07:15:53.547Z,0.00
2022-11-16T07:16:59.055Z,0.00
2022-11-16T07:17:53.523Z,0.00
2022-11-16T07:18:53.513Z,0.00
2022-11-16T07:19:53.502Z,0.00
2022-11-16T07:20:53.504Z,0.00
2022-11-16T07:21:53.504Z,0.00
2022-11-16T07:22:53.469Z,0.00
2022-11-16T07:23:53.458Z,0.00
2022-11-16T07:24:53.464Z,0.00
2022-11-16T07:25:53.426Z,0.00
2022-11-16T07:26:53.414Z,0.00
2022-11-16T07:27:53.427Z,0.00
2022-11-16T07:28:53.437Z,0.00
2022-11-16T07:29:53.425Z,0.00
2022-11-16T07:30:53.377Z,0.00
2022-11-16T07:31:53.360Z,0.00
2022-11-16T07:32:53.362Z,0.00
2022-11-16T07:33:53.424Z,0.00
2022-11-16T07:34:53.393Z,0.00
2022-11-16T07:35:53.365Z,0.00
2022-11-16T07:36:53.311Z,0.00
2022-11-16T07:37:53.294Z,0.00
2022-11-16T07:38:53.370Z,0.00
2022-11-16T07:39:53.296Z,0.00
2022-11-16T07:40:53.351Z,0.00
2022-11-16T07:41:53.253Z,0.00
2022-11-16T07:42:53.243Z,0.00
2022-11-16T07:43:53.566Z,0.00
2022-11-16T07:44:53.251Z,5.62
2022-11-16T07:45:53.230Z,5.62
2022-11-16T07:46:53.210Z,5.62
2022-11-16T07:47:53.204Z,5.62
2022-11-16T07:48:54.131Z,5.62
2022-11-16T07:49:53.190Z,5.62
2022-11-16T07:50:53.253Z,5.62
2022-11-16T07:51:53.152Z,5.62
2022-11-16T07:52:53.145Z,5.62
2022-11-16T07:53:53.136Z,5.62
2022-11-16T07:54:53.124Z,5.62
2022-11-16T07:55:53.117Z,5.62
2022-11-16T07:56:53.107Z,5.62
2022-11-16T07:57:53.652Z,5.62
2022-11-16T07:58:53.108Z,5.62
2022-11-16T07:59:53.085Z,5.62
2022-11-16T08:00:53.143Z,5.62
2022-11-16T08:01:53.075Z,5.62
2022-11-16T08:02:53.053Z,5.62
2022-11-16T08:03:53.021Z,5.62
2022-11-16T08:04:53.044Z,5.62
2022-11-16T08:05:53.009Z,5.62
2022-11-16T08:06:53.072Z,11.25
2022-11-16T08:07:52.976Z,11.25
2022-11-16T08:08:58.023Z,11.25
2022-11-16T08:09:53.036Z,11.25
2022-11-16T08:10:52.967Z,11.25
2022-11-16T08:11:52.946Z,11.25
2022-11-16T08:12:52.941Z,11.25
2022-11-16T08:13:52.911Z,11.25
2022-11-16T08:14:52.919Z,11.25
2022-11-16T08:15:52.913Z,11.25
2022-11-16T08:16:52.887Z,11.25
2022-11-16T08:17:52.866Z,11.25
2022-11-16T08:18:52.867Z,11.25
2022-11-16T08:19:52.857Z,11.25
2022-11-16T08:20:52.858Z,11.25
2022-11-16T08:21:52.824Z,16.88
2022-11-16T08:22:52.856Z,16.88
2022-11-16T08:23:58.135Z,22.50
2022-11-16T08:24:52.808Z,28.12
2022-11-16T08:25:52.843Z,28.12
2022-11-16T08:26:53.232Z,28.12
2022-11-16T08:27:52.806Z,28.12
2022-11-16T08:28:52.793Z,28.12
2022-11-16T08:29:52.744Z,22.50
2022-11-16T08:30:53.946Z,22.50
2022-11-16T08:31:52.782Z,22.50
2022-11-16T08:32:52.737Z,22.50
2022-11-16T08:33:52.732Z,22.50
2022-11-16T08:34:52.694Z,22.50
2022-11-16T08:35:52.678Z,22.50
2022-11-16T08:36:52.703Z,22.50
2022-11-16T08:37:52.691Z,16.88
2022-11-16T08:38:52.675Z,16.88
2022-11-16T08:39:52.682Z,16.88
2022-11-16T08:40:52.637Z,16.88
2022-11-16T08:41:52.618Z,16.88
2022-11-16T08:42:52.644Z,11.25
2022-11-16T08:43:52.636Z,11.25
2022-11-16T08:44:52.595Z,11.25
2022-11-16T08:45:53.267Z,11.25
2022-11-16T08:46:52.575Z,11.25
2022-11-16T08:48:03.161Z,11.25
2022-11-16T08:48:52.582Z,11.25
2022-11-16T08:49:52.568Z,16.88
2022-11-16T08:51:16.086Z,16.88
2022-11-16T08:51:52.531Z,16.88
2022-11-16T08:52:52.535Z,16.88
2022-11-16T08:53:52.504Z,22.50
2022-11-16T08:54:52.491Z,22.50
2022-11-16T08:55:52.483Z,22.50
2022-11-16T08:56:52.512Z,22.50
2022-11-16T08:57:52.484Z,22.50
2022-11-16T08:58:57.869Z,22.50
2022-11-16T08:59:52.583Z,22.50
2022-11-16T09:00:52.470Z,28.12
2022-11-16T09:01:52.514Z,28.12
2022-11-16T09:02:52.404Z,28.12
2022-11-16T09:03:52.400Z,33.75
2022-11-16T09:04:52.405Z,39.38
2022-11-16T09:05:52.410Z,45.00
2022-11-16T09:06:52.432Z,67.50
2022-11-16T09:07:52.356Z,50.62
2022-11-16T09:08:52.336Z,56.25
2022-11-16T09:09:52.324Z,45.00
2022-11-16T09:10:52.338Z,45.00
2022-11-16T09:11:52.318Z,45.00
2022-11-16T09:12:52.320Z,39.38
2022-11-16T09:13:52.284Z,39.38
2022-11-16T09:14:52.272Z,39.38
2022-11-16T09:15:52.267Z,39.38
2022-11-16T09:16:52.273Z,39.38
2022-11-16T09:17:52.256Z,39.38
2022-11-16T09:18:52.238Z,45.00
2022-11-16T09:19:52.224Z,39.38
2022-11-16T09:20:52.224Z,39.38
2022-11-16T09:21:52.189Z,39.38
2022-11-16T09:22:52.202Z,39.38
2022-11-16T09:23:52.174Z,33.75
2022-11-16T09:24:52.245Z,39.38
2022-11-16T09:25:52.164Z,39.38
2022-11-16T09:26:52.145Z,39.38
2022-11-16T09:27:52.161Z,39.38
2022-11-16T09:28:52.163Z,39.38
2022-11-16T09:29:52.112Z,39.38
2022-11-16T09:30:52.106Z,39.38
2022-11-16T09:31:52.090Z,45.00
2022-11-16T09:32:52.087Z,45.00
2022-11-16T09:33:52.166Z,50.62
2022-11-16T09:34:52.097Z,50.62
2022-11-16T09:35:52.124Z,50.62
2022-11-16T09:36:52.103Z,39.38
2022-11-16T09:37:52.025Z,39.38
2022-11-16T09:39:25.873Z,39.38
2022-11-16T09:39:52.884Z,39.38
2022-11-16T09:40:51.989Z,39.38
2022-11-16T09:41:52.007Z,39.38
2022-11-16T09:42:51.965Z,45.00
2022-11-16T09:43:51.986Z,50.62
2022-11-16T09:44:52.055Z,56.25
2022-11-16T09:45:51.950Z,73.12
2022-11-16T09:46:52.789Z,67.50
2022-11-16T09:47:51.925Z,73.12
2022-11-16T09:48:52.233Z,67.50
2022-11-16T09:49:51.880Z,67.50
2022-11-16T09:50:51.908Z,67.50
2022-11-16T09:51:51.877Z,78.75
2022-11-16T09:52:51.871Z,61.88
2022-11-16T09:53:51.854Z,61.88
2022-11-16T09:54:51.900Z,61.88
2022-11-16T09:55:51.862Z,50.62
2022-11-16T09:56:51.842Z,45.00
2022-11-16T09:57:51.806Z,39.38
2022-11-16T09:58:51.818Z,39.38
2022-11-16T09:59:51.818Z,56.25
2022-11-16T10:00:51.840Z,45.00
2022-11-16T10:01:51.807Z,56.25
2022-11-16T10:02:51.774Z,73.12
2022-11-16T10:03:51.761Z,67.50
2022-11-16T10:04:57.771Z,39.38
2022-11-16T10:05:51.734Z,33.75
2022-11-16T10:06:51.771Z,28.12
2022-11-16T10:07:51.701Z,22.50
2022-11-16T10:08:51.694Z,22.50
2022-11-16T10:09:51.671Z,22.50
2022-11-16T10:10:51.716Z,22.50
2022-11-16T10:11:51.651Z,22.50
2022-11-16T10:12:51.653Z,22.50
2022-11-16T10:13:51.627Z,28.12
2022-11-16T10:14:51.642Z,33.75
2022-11-16T10:15:51.664Z,39.38
2022-11-16T10:16:51.612Z,33.75
2022-11-16T10:17:51.603Z,33.75
2022-11-16T10:18:51.597Z,33.75
2022-11-16T10:19:51.560Z,33.75
2022-11-16T10:20:51.574Z,39.38
2022-11-16T10:21:51.582Z,33.75
2022-11-16T10:22:51.546Z,33.75
2022-11-16T10:23:51.531Z,33.75
2022-11-16T10:24:51.525Z,33.75
2022-11-16T10:25:51.501Z,33.75
2022-11-16T10:26:51.520Z,33.75
2022-11-16T10:27:51.477Z,39.38
2022-11-16T10:28:51.483Z,39.38
2022-11-16T10:29:51.478Z,45.00
2022-11-16T10:30:51.453Z,106.88
2022-11-16T10:31:51.494Z,106.88
2022-11-16T10:32:51.435Z,50.62
2022-11-16T10:33:51.416Z,56.25
2022-11-16T10:34:51.433Z,39.38
2022-11-16T10:35:51.396Z,45.00
2022-11-16T10:36:51.418Z,50.62
2022-11-16T10:37:51.389Z,61.88
2022-11-16T10:38:51.401Z,56.25
2022-11-16T10:39:51.378Z,50.62
2022-11-16T10:40:51.356Z,50.62
2022-11-16T10:41:51.366Z,61.88
2022-11-16T10:42:51.337Z,61.88
2022-11-16T10:43:51.378Z,50.62
2022-11-16T10:44:51.343Z,45.00
2022-11-16T10:45:51.311Z,45.00
2022-11-16T10:46:51.346Z,56.25
2022-11-16T10:47:51.267Z,50.62
2022-11-16T10:48:51.326Z,56.25
2022-11-16T10:49:51.295Z,61.88
2022-11-16T10:50:51.257Z,61.88
2022-11-16T10:51:51.232Z,264.38
2022-11-16T10:52:51.337Z,67.50
2022-11-16T10:53:51.200Z,56.25
2022-11-16T10:54:51.258Z,56.25
2022-11-16T10:55:51.201Z,50.62
2022-11-16T10:56:51.203Z,45.00
2022-11-16T10:57:51.308Z,50.62
2022-11-16T10:58:51.179Z,56.25
2022-11-16T10:59:51.178Z,50.62
2022-11-16T11:00:51.214Z,45.00
2022-11-16T11:01:51.142Z,56.25
2022-11-16T11:02:51.124Z,61.88
2022-11-16T11:03:51.098Z,50.62
2022-11-16T11:04:51.667Z,56.25
2022-11-16T11:05:51.111Z,50.62
2022-11-16T11:06:51.077Z,50.62
2022-11-16T11:07:55.333Z,95.62
2022-11-16T11:08:51.100Z,50.62
2022-11-16T11:09:51.084Z,45.00
2022-11-16T11:10:51.024Z,61.88
2022-11-16T11:11:51.006Z,78.75
2022-11-16T11:12:51.024Z,56.25
2022-11-16T11:13:50.994Z,56.25
2022-11-16T11:14:50.985Z,56.25
2022-11-16T11:15:50.984Z,56.25
2022-11-16T11:16:50.966Z,50.62
2022-11-16T11:17:50.951Z,56.25
2022-11-16T11:18:51.022Z,511.88
2022-11-16T11:19:50.946Z,585.00
2022-11-16T11:20:50.930Z,556.88
2022-11-16T11:21:50.908Z,421.88
2022-11-16T11:22:50.898Z,376.88
2022-11-16T11:23:50.930Z,275.62
2022-11-16T11:24:50.873Z,135.00
2022-11-16T11:25:50.880Z,151.88
2022-11-16T11:26:50.871Z,230.62
2022-11-16T11:27:50.839Z,135.00
2022-11-16T11:28:50.903Z,90.00
2022-11-16T11:29:50.806Z,196.88
2022-11-16T11:30:50.840Z,247.50
2022-11-16T11:31:50.813Z,225.00
2022-11-16T11:32:50.827Z,213.75
2022-11-16T11:33:50.776Z,129.38
2022-11-16T11:34:50.776Z,208.12
2022-11-16T11:35:50.778Z,191.25
2022-11-16T11:36:50.774Z,90.00
2022-11-16T11:37:50.733Z,157.50
2022-11-16T11:38:50.864Z,264.38
2022-11-16T11:39:50.772Z,253.12
2022-11-16T11:40:50.699Z,174.38
2022-11-16T11:41:50.685Z,50.62
2022-11-16T11:42:50.683Z,50.62
2022-11-16T11:43:50.773Z,84.38
2022-11-16T11:44:50.665Z,123.75
2022-11-16T11:45:50.634Z,135.00
2022-11-16T11:47:58.172Z,73.12
2022-11-16T11:48:50.640Z,73.12
2022-11-16T11:49:50.597Z,95.62
2022-11-16T11:50:50.594Z,84.38
2022-11-16T11:51:50.599Z,84.38
2022-11-16T11:52:50.562Z,78.75
2022-11-16T11:53:50.597Z,191.25
2022-11-16T11:54:50.543Z,151.88
2022-11-16T11:55:50.544Z,309.38
2022-11-16T11:56:50.524Z,123.75
2022-11-16T11:57:50.515Z,101.25
2022-11-16T11:58:50.494Z,129.38
2022-11-16T11:59:50.515Z,213.75
2022-11-16T12:00:50.497Z,140.62
2022-11-16T12:01:50.526Z,90.00
2022-11-16T12:02:50.490Z,101.25
2022-11-16T12:03:50.489Z,106.88
2022-11-16T12:04:50.490Z,90.00
2022-11-16T12:05:50.491Z,101.25
2022-11-16T12:06:50.456Z,61.88
2022-11-16T12:07:50.490Z,78.75
2022-11-16T12:08:50.381Z,78.75
2022-11-16T12:09:50.741Z,84.38
2022-11-16T12:10:50.382Z,78.75
2022-11-16T12:11:50.376Z,84.38
2022-11-16T12:12:50.391Z,78.75
2022-11-16T12:13:50.348Z,84.38
2022-11-16T12:14:50.349Z,90.00
2022-11-16T12:15:50.330Z,78.75
2022-11-16T12:16:50.316Z,78.75
2022-11-16T12:17:50.353Z,78.75
2022-11-16T12:18:50.317Z,78.75
2022-11-16T12:19:50.275Z,123.75
2022-11-16T12:20:50.271Z,264.38
2022-11-16T12:21:50.275Z,365.62
2022-11-16T12:22:50.330Z,236.25
2022-11-16T12:23:50.250Z,123.75
2022-11-16T12:24:50.213Z,101.25
2022-11-16T12:25:50.218Z,112.50
2022-11-16T12:26:50.234Z,78.75
2022-11-16T12:27:50.196Z,67.50
2022-11-16T12:28:51.383Z,67.50
2022-11-16T12:29:50.238Z,67.50
2022-11-16T12:30:50.168Z,90.00
2022-11-16T12:31:50.283Z,213.75
2022-11-16T12:32:50.133Z,168.75
2022-11-16T12:33:50.140Z,365.62
2022-11-16T12:34:50.308Z,759.38
2022-11-16T12:35:50.136Z,579.38
2022-11-16T12:36:50.101Z,298.12
2022-11-16T12:37:50.086Z,112.50
2022-11-16T12:38:50.076Z,129.38
2022-11-16T12:39:50.070Z,118.12
2022-11-16T12:40:50.051Z,174.38
2022-11-16T12:41:50.049Z,135.00
2022-11-16T12:42:50.088Z,163.12
2022-11-16T12:43:50.014Z,101.25
2022-11-16T12:44:50.099Z,84.38
2022-11-16T12:45:50.011Z,84.38
2022-11-16T12:46:50.017Z,106.88
2022-11-16T12:47:50.032Z,123.75
2022-11-16T12:48:49.989Z,118.12
2022-11-16T12:49:49.987Z,84.38
2022-11-16T12:50:50.053Z,61.88
2022-11-16T12:51:49.952Z,61.88
2022-11-16T12:52:49.916Z,67.50
2022-11-16T12:53:49.930Z,73.12
2022-11-16T12:55:19.121Z,140.62
2022-11-16T12:55:50.196Z,140.62
2022-11-16T12:56:49.943Z,123.75
2022-11-16T12:57:49.928Z,78.75
2022-11-16T12:58:49.852Z,78.75
2022-11-16T12:59:49.873Z,84.38
2022-11-16T13:00:49.886Z,67.50
2022-11-16T13:01:49.852Z,67.50
2022-11-16T13:02:49.815Z,112.50
2022-11-16T13:03:49.800Z,213.75
2022-11-16T13:04:49.823Z,247.50
2022-11-16T13:05:49.819Z,270.00
2022-11-16T13:06:49.819Z,163.12